createdAt,value
2023-01-26T00:30:16.238Z,0
2023-01-26T00:30:56.606Z,0
2023-01-26T00:31:37.146Z,0
2023-01-26T00:32:17.588Z,0
2023-01-26T00:32:58.073Z,0
2023-01-26T00:33:38.547Z,0
2023-01-26T00:34:19.068Z,0
2023-01-26T00:34:59.591Z,0
2023-01-26T00:35:40.059Z,0
2023-01-26T00:43:45.964Z,0
2023-01-26T00:44:26.427Z,0
2023-01-26T00:45:06.946Z,0
2023-01-26T00:45:47.465Z,0
2023-01-26T00:46:27.976Z,0
2023-01-26T00:47:08.451Z,0
2023-01-26T00:47:48.970Z,0
2023-01-26T00:48:29.466Z,0
2023-01-26T00:49:09.948Z,0
2023-01-26T00:49:50.437Z,0
2023-01-26T00:57:15.930Z,0
2023-01-26T00:57:56.421Z,0
2023-01-26T00:58:36.864Z,0
2023-01-26T00:59:17.347Z,0
2023-01-26T00:59:57.836Z,0
2023-01-26T01:00:38.348Z,0
2023-01-26T01:01:18.844Z,0
2023-01-26T01:01:59.353Z,0
2023-01-26T01:02:39.817Z,0
2023-01-26T01:03:20.359Z,0
2023-01-26T01:08:10.546Z,0
2023-01-26T01:14:55.645Z,0
2023-01-26T01:15:36.113Z,0
2023-01-26T01:16:16.762Z,0
2023-01-26T01:16:57.112Z,0
2023-01-26T01:17:37.586Z,0
2023-01-26T01:18:18.081Z,0
2023-01-26T01:18:58.606Z,0
2023-01-26T01:19:39.125Z,0
2023-01-26T01:20:19.670Z,0
2023-01-26T01:21:00.107Z,0
2023-01-26T01:28:25.522Z,0
2023-01-26T01:29:06.019Z,0
2023-01-26T01:29:46.522Z,0
2023-01-26T01:30:27.004Z,0
2023-01-26T01:31:07.620Z,0
2023-01-26T01:31:48.100Z,0
2023-01-26T01:32:28.591Z,0
2023-01-26T01:33:09.114Z,0
2023-01-26T01:33:49.552Z,0
2023-01-26T01:34:30.020Z,0
2023-01-26T01:35:10.564Z,0
2023-01-26T01:39:54.752Z,0
2023-01-26T01:40:35.277Z,0
2023-01-26T01:41:15.761Z,0
2023-01-26T01:41:57.197Z,0
2023-01-26T01:42:37.720Z,0
2023-01-26T01:43:18.241Z,0
2023-01-26T01:43:58.711Z,0
2023-01-26T01:44:39.195Z,0
2023-01-26T01:45:19.708Z,0
2023-01-26T01:52:04.605Z,0
2023-01-26T01:52:45.141Z,0
2023-01-26T01:53:25.605Z,0
2023-01-26T01:54:06.071Z,0
2023-01-26T01:54:46.583Z,0
2023-01-26T01:55:27.090Z,0
2023-01-26T01:56:07.567Z,0
2023-01-26T01:56:48.067Z,0
2023-01-26T01:57:28.585Z,0
2023-01-26T01:58:09.012Z,0
2023-01-26T01:58:49.494Z,0
2023-01-26T02:05:34.578Z,0
2023-01-26T02:06:15.065Z,0
2023-01-26T02:06:55.599Z,0
2023-01-26T02:07:36.076Z,0
2023-01-26T02:08:16.594Z,0
2023-01-26T02:11:30.729Z,0
2023-01-26T02:12:11.715Z,0
2023-01-26T02:12:52.659Z,0
2023-01-26T02:13:33.644Z,0
2023-01-26T02:14:14.604Z,0
2023-01-26T02:14:55.577Z,0
2023-01-26T02:18:20.535Z,0
2023-01-26T02:19:01.548Z,0
2023-01-26T02:19:42.714Z,0
2023-01-26T02:20:23.674Z,0
2023-01-26T02:21:04.826Z,0
2023-01-26T02:25:10.765Z,0
2023-01-26T02:25:51.746Z,0
2023-01-26T02:26:32.701Z,0
2023-01-26T02:27:13.784Z,0
2023-01-26T02:27:54.824Z,0
2023-01-26T02:28:35.771Z,0
2023-01-26T02:32:00.635Z,0
2023-01-26T02:32:41.667Z,0
2023-01-26T02:34:10.206Z,0
2023-01-26T02:34:51.237Z,0
2023-01-26T02:35:32.156Z,0
2023-01-26T02:36:13.172Z,0
2023-01-26T02:36:54.179Z,0
2023-01-26T02:37:35.150Z,0
2023-01-26T02:41:00.185Z,0
2023-01-26T02:41:41.273Z,0
2023-01-26T02:42:22.243Z,0
2023-01-26T02:43:03.269Z,0
2023-01-26T02:43:44.203Z,0
2023-01-26T02:44:25.247Z,0
2023-01-26T02:47:50.295Z,0
2023-01-26T02:48:31.304Z,0
2023-01-26T02:49:12.265Z,0
2023-01-26T02:49:53.248Z,0
2023-01-26T02:50:34.229Z,0
2023-01-26T02:51:15.206Z,0
2023-01-26T02:54:41.123Z,0
2023-01-26T02:55:22.147Z,0
2023-01-26T02:56:03.275Z,0
2023-01-26T02:56:44.259Z,0
2023-01-26T02:57:25.270Z,0
2023-01-26T03:00:50.346Z,0
2023-01-26T03:01:32.577Z,0
2023-01-26T03:02:12.327Z,0
2023-01-26T03:02:53.315Z,0
2023-01-26T03:03:34.322Z,0
2023-01-26T03:04:15.306Z,0
2023-01-26T03:07:40.277Z,0
2023-01-26T03:11:09.574Z,0
2023-01-26T03:11:49.909Z,0
2023-01-26T03:12:30.356Z,0
2023-01-26T03:13:10.841Z,0
2023-01-26T03:13:51.364Z,0
2023-01-26T03:14:31.877Z,0
2023-01-26T03:15:12.331Z,0
2023-01-26T03:15:53.047Z,0
2023-01-26T03:16:33.315Z,0
2023-01-26T03:17:13.789Z,0
2023-01-26T03:17:54.294Z,0
2023-01-26T03:24:39.279Z,0
2023-01-26T03:25:19.819Z,0
2023-01-26T03:26:00.283Z,0
2023-01-26T03:26:40.835Z,0
2023-01-26T03:27:21.339Z,0
2023-01-26T03:28:01.822Z,0
2023-01-26T03:28:42.263Z,0
2023-01-26T03:29:22.727Z,0
2023-01-26T03:30:03.231Z,0
2023-01-26T03:30:44.607Z,0
2023-01-26T03:37:29.369Z,0
2023-01-26T03:38:09.851Z,0
2023-01-26T03:41:23.528Z,0
2023-01-26T03:42:03.994Z,0
2023-01-26T03:42:44.463Z,0
2023-01-26T03:43:25.009Z,0
2023-01-26T03:44:05.407Z,0
2023-01-26T03:44:45.891Z,0
2023-01-26T03:45:26.374Z,0
2023-01-26T03:46:06.861Z,0
2023-01-26T03:46:47.399Z,0
2023-01-26T03:47:27.849Z,0
2023-01-26T03:48:08.373Z,0
2023-01-26T03:54:53.283Z,0
2023-01-26T03:55:33.769Z,0
2023-01-26T03:56:14.337Z,0
2023-01-26T03:56:54.839Z,0
2023-01-26T03:57:35.346Z,0
2023-01-26T03:58:15.860Z,0
2023-01-26T03:59:36.875Z,0
2023-01-26T04:00:17.360Z,0
2023-01-26T04:00:57.906Z,0
2023-01-26T04:05:48.431Z,0
2023-01-26T04:12:33.286Z,0
2023-01-26T04:13:13.735Z,0
2023-01-26T04:13:54.265Z,0
2023-01-26T04:14:38.227Z,0
2023-01-26T04:15:15.261Z,0
2023-01-26T04:15:55.741Z,0
2023-01-26T04:16:36.233Z,0
2023-01-26T04:17:16.714Z,0
2023-01-26T04:17:57.188Z,0
2023-01-26T04:18:37.668Z,0
2023-01-26T04:19:18.125Z,0
2023-01-26T04:26:03.207Z,0
2023-01-26T04:26:43.694Z,0
2023-01-26T04:27:24.152Z,0
2023-01-26T04:28:04.700Z,0
2023-01-26T04:28:45.156Z,0
2023-01-26T04:29:25.621Z,0
2023-01-26T04:30:06.089Z,0
2023-01-26T04:30:46.622Z,0
2023-01-26T04:31:27.163Z,0
2023-01-26T04:32:07.598Z,0
2023-01-26T04:32:48.048Z,0
2023-01-26T04:33:28.532Z,0
2023-01-26T04:40:13.659Z,0
2023-01-26T04:40:53.887Z,0
2023-01-26T04:41:34.353Z,0
2023-01-26T04:42:14.886Z,0
2023-01-26T04:42:55.385Z,0
2023-01-26T04:43:35.924Z,0
2023-01-26T04:44:16.386Z,0
2023-01-26T04:44:56.895Z,0
2023-01-26T04:45:37.437Z,0
2023-01-26T04:46:17.866Z,0
2023-01-26T04:46:58.399Z,0
2023-01-26T04:53:43.322Z,0
2023-01-26T04:54:23.793Z,0
2023-01-26T04:55:04.299Z,0
2023-01-26T04:55:44.862Z,0
2023-01-26T04:56:25.392Z,0
2023-01-26T04:57:05.896Z,0
2023-01-26T04:57:46.450Z,0
2023-01-26T04:58:26.902Z,0
2023-01-26T04:59:07.441Z,0
2023-01-26T04:59:47.890Z,0
2023-01-26T05:00:28.394Z,0
2023-01-26T05:07:13.394Z,0
2023-01-26T05:07:53.913Z,0
2023-01-26T05:08:34.431Z,0
2023-01-26T05:09:14.910Z,0
2023-01-26T05:09:55.351Z,0
2023-01-26T05:11:16.358Z,0
2023-01-26T05:11:56.848Z,0
2023-01-26T05:12:37.356Z,0
2023-01-26T05:13:17.788Z,0
2023-01-26T05:13:58.314Z,0
2023-01-26T05:21:23.672Z,0
2023-01-26T05:22:04.175Z,0
2023-01-26T05:22:44.692Z,0
2023-01-26T05:23:25.185Z,0
2023-01-26T05:24:05.773Z,0
2023-01-26T05:24:46.178Z,0
2023-01-26T05:25:26.730Z,0
2023-01-26T05:26:07.217Z,0
2023-01-26T05:26:47.703Z,0
2023-01-26T05:27:28.173Z,0
2023-01-26T05:34:53.707Z,0
2023-01-26T05:35:34.234Z,0
2023-01-26T05:36:14.720Z,0
2023-01-26T05:36:55.226Z,0
2023-01-26T05:40:34.434Z,0
2023-01-26T05:41:15.180Z,0
2023-01-26T05:41:56.003Z,0
2023-01-26T05:42:36.733Z,0
2023-01-26T05:43:17.274Z,0
2023-01-26T05:43:57.752Z,0
2023-01-26T05:44:38.382Z,0
2023-01-26T05:45:18.972Z,0
2023-01-26T05:48:44.077Z,0
2023-01-26T05:49:24.621Z,0
2023-01-26T05:50:05.169Z,0
2023-01-26T05:50:45.603Z,0
2023-01-26T05:51:26.108Z,0
2023-01-26T05:52:06.867Z,0
2023-01-26T05:52:47.526Z,0
2023-01-26T05:53:28.191Z,0
2023-01-26T05:54:08.601Z,0
2023-01-26T06:32:18.245Z,0
2023-01-26T06:33:00.064Z,0
2023-01-26T06:33:39.040Z,0
2023-01-26T06:34:19.500Z,0
2023-01-26T06:34:59.996Z,0
2023-01-26T06:35:40.507Z,0
2023-01-26T06:36:21.082Z,0
2023-01-26T06:37:01.571Z,0
2023-01-26T06:37:42.039Z,0
2023-01-26T06:38:22.609Z,0
2023-01-26T06:43:47.752Z,0
2023-01-26T06:44:28.258Z,0
2023-01-26T06:45:08.728Z,0
2023-01-26T06:45:49.237Z,0
2023-01-26T06:46:29.717Z,0
2023-01-26T06:47:10.252Z,0
2023-01-26T06:47:50.706Z,0
2023-01-26T06:48:31.176Z,0
2023-01-26T06:49:52.142Z,0
2023-01-26T06:55:57.238Z,0
2023-01-26T06:56:37.744Z,0
2023-01-26T06:57:58.705Z,0
2023-01-26T06:58:39.238Z,0
2023-01-26T06:59:19.937Z,0
2023-01-26T07:00:00.562Z,0
2023-01-26T07:00:40.968Z,0
2023-01-26T07:01:21.509Z,0
2023-01-26T07:02:01.977Z,0
2023-01-26T07:09:27.611Z,4
2023-01-26T07:10:08.238Z,4
2023-01-26T07:10:48.608Z,4
2023-01-26T07:11:29.122Z,4
2023-01-26T07:12:09.656Z,4
2023-01-26T07:12:50.135Z,4
2023-01-26T07:13:30.624Z,4
2023-01-26T07:14:11.102Z,4
2023-01-26T07:14:51.628Z,8
2023-01-26T07:15:32.166Z,4
2023-01-26T07:22:17.606Z,16
2023-01-26T07:22:58.158Z,16
2023-01-26T07:23:38.699Z,16
2023-01-26T07:24:19.188Z,16
2023-01-26T07:24:59.784Z,20
2023-01-26T07:25:40.309Z,20
2023-01-26T07:26:20.786Z,24
2023-01-26T07:27:01.354Z,24
2023-01-26T07:27:41.863Z,24
2023-01-26T07:28:22.344Z,28
2023-01-26T07:33:26.855Z,32
2023-01-26T07:34:05.422Z,36
2023-01-26T07:34:45.895Z,36
2023-01-26T07:35:26.395Z,36
2023-01-26T07:36:07.060Z,36
2023-01-26T07:36:47.584Z,40
2023-01-26T07:42:52.956Z,68
2023-01-26T07:43:33.500Z,72
2023-01-26T07:44:13.942Z,68
2023-01-26T07:44:54.502Z,68
2023-01-26T07:45:35.102Z,64
2023-01-26T07:46:15.784Z,64
2023-01-26T07:46:56.383Z,56
2023-01-26T07:47:36.758Z,56
2023-01-26T07:48:17.236Z,56
2023-01-26T07:48:57.796Z,56
2023-01-26T07:53:42.743Z,44
2023-01-26T07:54:23.447Z,48
2023-01-26T07:55:04.521Z,48
2023-01-26T07:55:45.065Z,52
2023-01-26T07:56:25.825Z,52
2023-01-26T07:57:06.291Z,56
2023-01-26T07:57:46.812Z,60
2023-01-26T07:58:27.326Z,56
2023-01-26T08:04:32.483Z,48
2023-01-26T08:05:12.879Z,44
2023-01-26T08:05:53.399Z,44
2023-01-26T08:06:33.957Z,44
2023-01-26T08:07:14.401Z,44
2023-01-26T08:07:55.021Z,48
2023-01-26T08:08:35.477Z,56
2023-01-26T08:09:16.535Z,64
2023-01-26T08:09:56.806Z,72
2023-01-26T08:10:37.333Z,88
2023-01-26T08:11:17.856Z,96
2023-01-26T08:16:42.878Z,124
2023-01-26T08:17:22.834Z,124
2023-01-26T08:18:03.393Z,120
2023-01-26T08:18:43.933Z,124
2023-01-26T08:19:24.424Z,132
2023-01-26T08:20:05.032Z,136
2023-01-26T08:20:45.501Z,144
2023-01-26T08:21:26.036Z,152
2023-01-26T08:22:06.597Z,160
2023-01-26T08:22:47.181Z,168
2023-01-26T08:23:27.806Z,168
2023-01-26T08:29:33.002Z,192
2023-01-26T08:30:13.855Z,184
2023-01-26T08:30:54.241Z,176
2023-01-26T08:31:34.727Z,168
2023-01-26T08:32:15.274Z,164
2023-01-26T08:32:55.862Z,160
2023-01-26T08:33:36.737Z,156
2023-01-26T08:34:17.300Z,160
2023-01-26T08:34:57.929Z,164
2023-01-26T08:41:02.588Z,152
2023-01-26T08:41:43.084Z,148
2023-01-26T08:42:24.637Z,152
2023-01-26T08:43:05.104Z,148
2023-01-26T08:43:45.613Z,148
2023-01-26T08:44:26.607Z,144
2023-01-26T08:45:07.199Z,144
2023-01-26T08:45:48.151Z,148
2023-01-26T08:51:12.753Z,140
2023-01-26T08:51:53.348Z,136
2023-01-26T08:52:33.911Z,132
2023-01-26T08:53:14.561Z,132
2023-01-26T08:53:55.175Z,128
2023-01-26T08:54:35.786Z,124
2023-01-26T08:55:56.804Z,128
2023-01-26T08:56:37.344Z,132
2023-01-26T09:02:43.160Z,152
2023-01-26T09:03:23.560Z,156
2023-01-26T09:04:04.126Z,160
2023-01-26T09:04:44.877Z,164
2023-01-26T09:05:25.439Z,152
2023-01-26T09:06:05.944Z,144
2023-01-26T09:06:46.435Z,144
2023-01-26T09:07:27.012Z,156
2023-01-26T09:08:07.511Z,164
2023-01-26T09:09:29.603Z,188
2023-01-26T09:12:13.372Z,188
2023-01-26T09:12:53.906Z,188
2023-01-26T09:15:31.688Z,216
2023-01-26T09:16:12.024Z,232
2023-01-26T09:16:52.624Z,256
2023-01-26T09:17:33.104Z,280
2023-01-26T09:18:13.624Z,296
2023-01-26T09:18:55.067Z,312
2023-01-26T09:19:34.762Z,316
2023-01-26T09:20:15.330Z,308
2023-01-26T09:20:55.858Z,284
2023-01-26T09:24:21.988Z,268
2023-01-26T09:25:02.452Z,268
2023-01-26T09:25:42.989Z,272
2023-01-26T09:26:23.544Z,276
2023-01-26T09:27:04.055Z,288
2023-01-26T09:27:45.142Z,280
2023-01-26T09:28:27.146Z,264
2023-01-26T09:32:23.952Z,232
2023-01-26T09:33:05.763Z,236
2023-01-26T09:33:47.600Z,232
2023-01-26T09:37:28.305Z,260
2023-01-26T09:38:08.893Z,256
2023-01-26T09:38:50.773Z,244
2023-01-26T09:39:34.187Z,232
2023-01-26T09:40:15.042Z,232
2023-01-26T09:42:19.549Z,232
2023-01-26T09:43:00.964Z,228
2023-01-26T09:43:45.707Z,224
2023-01-26T09:45:09.491Z,240
2023-01-26T09:45:50.423Z,236
2023-01-26T09:46:31.640Z,228
2023-01-26T09:47:13.905Z,232
2023-01-26T09:50:49.755Z,244
2023-01-26T09:51:30.259Z,240
2023-01-26T09:52:10.813Z,240
2023-01-26T09:52:51.330Z,236
2023-01-26T09:53:32.229Z,228
2023-01-26T09:54:13.392Z,224
2023-01-26T09:54:53.931Z,232
2023-01-26T09:55:34.502Z,228
2023-01-26T10:01:00.300Z,232
2023-01-26T10:01:40.897Z,232
2023-01-26T10:02:21.446Z,232
2023-01-26T10:03:02.160Z,236
2023-01-26T10:03:42.490Z,244
2023-01-26T10:04:23.095Z,248
2023-01-26T10:05:03.640Z,248
2023-01-26T10:05:44.862Z,252
2023-01-26T10:10:14.139Z,248
2023-01-26T10:10:54.645Z,244
2023-01-26T10:11:35.391Z,240
2023-01-26T10:12:15.956Z,240
2023-01-26T10:12:56.424Z,232
2023-01-26T10:13:36.979Z,224
2023-01-26T10:14:17.440Z,220
2023-01-26T10:14:58.049Z,224
2023-01-26T10:15:38.667Z,232
2023-01-26T10:21:04.773Z,308
2023-01-26T10:21:47.372Z,308
2023-01-26T10:22:27.902Z,296
2023-01-26T10:23:08.479Z,280
2023-01-26T10:26:48.649Z,252
2023-01-26T10:27:29.231Z,244
2023-01-26T10:28:09.838Z,236
2023-01-26T10:28:50.388Z,240
2023-01-26T10:29:31.090Z,240
2023-01-26T10:30:11.681Z,248
2023-01-26T10:30:52.249Z,260
2023-01-26T10:31:32.775Z,268
2023-01-26T10:32:13.251Z,272
2023-01-26T10:38:19.543Z,276
2023-01-26T10:39:00.190Z,296
2023-01-26T10:39:40.858Z,300
2023-01-26T10:40:21.513Z,288
2023-01-26T10:41:02.036Z,272
2023-01-26T10:41:42.807Z,272
2023-01-26T10:42:23.370Z,276
2023-01-26T10:47:55.090Z,344
2023-01-26T10:51:58.380Z,308
2023-01-26T10:52:38.901Z,292
2023-01-26T10:53:19.470Z,276
2023-01-26T10:53:59.952Z,260
2023-01-26T10:54:40.529Z,252
2023-01-26T10:55:21.132Z,244
2023-01-26T10:56:01.792Z,244
2023-01-26T10:56:42.365Z,248
2023-01-26T10:57:22.906Z,260
2023-01-26T10:58:03.420Z,284
2023-01-26T11:04:48.756Z,440
2023-01-26T11:05:29.286Z,464
2023-01-26T11:06:09.807Z,452
2023-01-26T11:06:50.400Z,476
2023-01-26T11:07:31.057Z,488
2023-01-26T11:08:11.549Z,476
2023-01-26T11:08:52.102Z,468
2023-01-26T11:09:33.457Z,484
2023-01-26T11:14:58.586Z,452
2023-01-26T11:15:39.278Z,448
2023-01-26T11:16:19.733Z,432
2023-01-26T11:17:00.116Z,428
2023-01-26T11:17:40.804Z,432
2023-01-26T11:18:21.319Z,416
2023-01-26T11:19:01.857Z,412
2023-01-26T11:19:42.343Z,392
2023-01-26T11:20:23.004Z,388
2023-01-26T11:21:03.495Z,372
2023-01-26T11:27:48.724Z,392
2023-01-26T11:28:29.222Z,376
2023-01-26T11:29:09.808Z,364
2023-01-26T11:29:50.296Z,360
2023-01-26T11:30:30.851Z,348
2023-01-26T11:31:11.413Z,340
2023-01-26T11:31:51.958Z,324
2023-01-26T11:32:32.400Z,312
2023-01-26T11:33:12.984Z,320
2023-01-26T11:33:53.559Z,328
2023-01-26T11:39:18.883Z,384
2023-01-26T11:39:59.388Z,372
2023-01-26T11:40:39.865Z,380
2023-01-26T11:41:20.377Z,384
2023-01-26T11:43:34.010Z,364
2023-01-26T11:44:14.562Z,360
2023-01-26T11:44:55.076Z,364
2023-01-26T11:45:35.648Z,364
2023-01-26T11:46:16.203Z,340
2023-01-26T11:46:57.640Z,348
2023-01-26T11:47:37.246Z,348
2023-01-26T11:48:17.724Z,344
2023-01-26T11:48:58.237Z,328
2023-01-26T12:32:40.275Z,260
2023-01-26T12:33:20.366Z,244
2023-01-26T12:34:00.911Z,276
2023-01-26T12:34:41.397Z,316
2023-01-26T12:35:21.919Z,316
2023-01-26T12:36:02.450Z,300
2023-01-26T12:36:42.985Z,300
2023-01-26T12:37:23.531Z,320
2023-01-26T12:38:17.161Z,320
2023-01-26T12:43:28.763Z,312
2023-01-26T12:44:09.305Z,332
2023-01-26T12:44:49.902Z,332
2023-01-26T12:45:30.432Z,320
2023-01-26T12:46:10.969Z,336
2023-01-26T12:46:51.475Z,348
2023-01-26T12:47:32.035Z,344
2023-01-26T12:48:12.723Z,352
2023-01-26T12:48:53.302Z,352
2023-01-26T12:49:33.928Z,344
2023-01-26T12:55:38.943Z,324
2023-01-26T12:56:19.633Z,316
2023-01-26T12:57:40.673Z,328
2023-01-26T13:00:55.000Z,348
2023-01-26T13:01:35.175Z,336
2023-01-26T13:02:15.682Z,316
2023-01-26T13:02:56.085Z,312
2023-01-26T13:03:36.597Z,316
2023-01-26T13:04:17.103Z,320
2023-01-26T13:04:58.439Z,316
2023-01-26T13:05:38.976Z,308
2023-01-26T13:06:19.539Z,316
2023-01-26T13:14:02.388Z,264
2023-01-26T13:14:42.886Z,276
2023-01-26T13:15:23.521Z,276
2023-01-26T13:16:04.116Z,256
2023-01-26T13:16:44.639Z,236
2023-01-26T13:17:25.144Z,248
2023-01-26T13:18:05.751Z,240
2023-01-26T13:18:46.270Z,236
2023-01-26T13:19:26.790Z,232
2023-01-26T13:22:00.123Z,216
2023-01-26T13:22:40.807Z,220
2023-01-26T13:23:21.717Z,224
2023-01-26T13:24:02.496Z,220
2023-01-26T13:24:43.000Z,208
2023-01-26T13:25:23.632Z,208
2023-01-26T13:26:09.775Z,204
2023-01-26T13:26:44.727Z,212
2023-01-26T13:32:50.028Z,200
2023-01-26T13:33:30.621Z,208
2023-01-26T13:34:11.190Z,220
2023-01-26T13:34:51.979Z,216
2023-01-26T13:35:32.407Z,204
2023-01-26T13:36:13.036Z,204
2023-01-26T13:36:53.591Z,200
2023-01-26T13:37:34.097Z,204
2023-01-26T13:38:14.638Z,208
2023-01-26T13:43:36.658Z,184
2023-01-26T13:44:17.742Z,188
2023-01-26T13:44:58.243Z,184
2023-01-26T13:45:38.827Z,184
2023-01-26T13:48:52.880Z,212
2023-01-26T13:49:33.147Z,208
2023-01-26T13:50:13.826Z,204
2023-01-26T13:50:54.195Z,208
2023-01-26T13:51:34.726Z,204
2023-01-26T13:52:15.227Z,204
2023-01-26T13:52:55.812Z,204
2023-01-26T13:53:36.349Z,200
2023-01-26T13:54:17.065Z,196
2023-01-26T14:01:02.572Z,192
2023-01-26T14:01:43.460Z,192
2023-01-26T14:02:23.830Z,188
2023-01-26T14:03:04.244Z,188
2023-01-26T14:03:44.737Z,200
2023-01-26T14:04:25.300Z,188
2023-01-26T14:05:05.971Z,184
2023-01-26T14:05:46.491Z,188
2023-01-26T14:06:27.079Z,184
2023-01-26T14:07:07.530Z,180
2023-01-26T14:12:32.566Z,160
2023-01-26T14:13:13.192Z,148
2023-01-26T14:13:53.621Z,152
2023-01-26T14:14:34.215Z,152
2023-01-26T14:15:14.812Z,152
2023-01-26T14:15:55.419Z,156
2023-01-26T14:16:37.222Z,160
2023-01-26T14:17:17.095Z,160
2023-01-26T14:21:22.423Z,152
2023-01-26T14:22:03.081Z,144
2023-01-26T14:22:43.728Z,140
2023-01-26T14:23:24.190Z,136
2023-01-26T14:24:04.890Z,140
2023-01-26T14:24:45.399Z,140
2023-01-26T14:25:25.914Z,144
2023-01-26T14:26:06.418Z,128
2023-01-26T14:26:47.006Z,140
2023-01-26T14:27:27.620Z,136
2023-01-26T14:33:32.455Z,144
2023-01-26T14:34:12.967Z,136
2023-01-26T14:34:53.566Z,128
2023-01-26T14:35:34.103Z,136
2023-01-26T14:36:14.680Z,140
2023-01-26T14:36:55.178Z,140
2023-01-26T14:37:35.726Z,140
2023-01-26T14:38:16.291Z,140
2023-01-26T14:38:56.748Z,132
2023-01-26T14:39:37.332Z,132
2023-01-26T14:46:22.623Z,144
2023-01-26T14:47:03.156Z,136
2023-01-26T14:47:43.733Z,128
2023-01-26T14:48:24.259Z,124
2023-01-26T14:49:07.223Z,116
2023-01-26T14:49:45.258Z,116
2023-01-26T14:50:25.800Z,120
2023-01-26T14:51:06.315Z,112
2023-01-26T14:51:46.914Z,108
2023-01-26T14:52:27.393Z,108
2023-01-26T14:59:12.450Z,80
2023-01-26T14:59:52.958Z,80
2023-01-26T15:00:33.540Z,80
2023-01-26T15:01:14.054Z,84
2023-01-26T15:04:29.752Z,72
2023-01-26T15:05:09.992Z,68
2023-01-26T15:05:50.605Z,72
2023-01-26T15:06:31.047Z,64
2023-01-26T15:07:11.617Z,64
2023-01-26T15:07:52.137Z,72
2023-01-26T15:08:34.633Z,68
2023-01-26T15:09:13.167Z,64
2023-01-26T15:09:54.624Z,68
2023-01-26T15:15:19.124Z,60
2023-01-26T15:15:59.845Z,60
2023-01-26T15:16:40.326Z,64
2023-01-26T15:17:20.828Z,64
2023-01-26T15:18:01.380Z,64
2023-01-26T15:18:41.912Z,60
2023-01-26T15:19:22.527Z,64
2023-01-26T15:22:43.585Z,68
2023-01-26T15:23:22.555Z,68
2023-01-26T15:24:03.453Z,64
2023-01-26T15:24:44.002Z,60
2023-01-26T15:25:24.590Z,60
2023-01-26T15:26:05.140Z,68
2023-01-26T15:26:45.783Z,64
2023-01-26T15:27:26.147Z,60
2023-01-26T15:28:06.724Z,56
2023-01-26T15:30:36.008Z,44
2023-01-26T15:31:16.489Z,40
2023-01-26T15:31:57.026Z,40
2023-01-26T15:32:37.489Z,36
2023-01-26T15:33:18.082Z,36
2023-01-26T15:33:59.775Z,36
2023-01-26T15:34:40.545Z,36
2023-01-26T15:40:05.559Z,28
2023-01-26T15:40:46.083Z,28
2023-01-26T15:41:26.658Z,28
2023-01-26T15:42:07.136Z,24
2023-01-26T15:42:47.696Z,24
2023-01-26T15:43:28.297Z,24
2023-01-26T15:44:08.869Z,28
2023-01-26T15:44:49.426Z,24
2023-01-26T15:45:29.913Z,24
2023-01-26T15:46:10.493Z,24
2023-01-26T15:51:35.810Z,20
2023-01-26T15:52:16.364Z,20
2023-01-26T15:52:57.023Z,20
2023-01-26T15:53:37.559Z,20
2023-01-26T15:54:59.284Z,20
2023-01-26T15:55:40.351Z,20
2023-01-26T15:56:20.974Z,16
2023-01-26T16:01:05.711Z,16
2023-01-26T16:01:46.396Z,16
2023-01-26T16:02:26.984Z,12
2023-01-26T16:03:07.432Z,12
2023-01-26T16:03:47.977Z,12
2023-01-26T16:04:28.591Z,8
2023-01-26T16:05:09.257Z,12
2023-01-26T16:05:49.969Z,12
2023-01-26T16:06:30.490Z,8
2023-01-26T16:11:55.906Z,8
2023-01-26T16:12:36.437Z,4
2023-01-26T16:13:16.980Z,4
2023-01-26T16:14:03.120Z,4
2023-01-26T16:15:57.957Z,4
2023-01-26T16:16:38.660Z,4
2023-01-26T16:17:19.211Z,0
2023-01-26T16:17:59.680Z,4
2023-01-26T16:18:41.457Z,4
2023-01-26T16:21:55.873Z,4
2023-01-26T16:22:36.884Z,4
2023-01-26T16:23:17.874Z,4
2023-01-26T16:23:58.952Z,4
2023-01-26T16:24:39.960Z,4
2023-01-26T16:28:05.216Z,0
2023-01-26T16:28:47.148Z,0
2023-01-26T16:29:28.199Z,0
2023-01-26T16:30:10.358Z,0
2023-01-26T16:33:36.032Z,0
2023-01-26T16:34:17.030Z,0
2023-01-26T16:34:58.145Z,0
2023-01-26T16:35:39.334Z,0
2023-01-26T16:36:20.524Z,0
2023-01-26T16:39:05.414Z,0
2023-01-26T16:41:18.743Z,0
2023-01-26T16:41:59.382Z,0
2023-01-26T16:42:40.038Z,0
2023-01-26T16:43:23.410Z,0
2023-01-26T16:44:01.525Z,0
2023-01-26T16:44:43.505Z,0
2023-01-26T16:49:28.292Z,0
2023-01-26T16:50:09.096Z,0
2023-01-26T16:50:50.929Z,0
2023-01-26T16:51:31.542Z,0
2023-01-26T16:52:12.499Z,0
2023-01-26T16:52:53.357Z,0
2023-01-26T16:55:38.703Z,0
2023-01-26T16:56:19.331Z,0
2023-01-26T16:57:01.222Z,0
2023-01-26T16:57:42.784Z,0
2023-01-26T17:01:36.985Z,0
2023-01-26T17:02:19.560Z,0
2023-01-26T17:03:00.061Z,0
2023-01-26T17:03:40.633Z,0
2023-01-26T17:04:21.085Z,0
2023-01-26T17:05:01.609Z,0
2023-01-26T17:11:06.756Z,0
2023-01-26T17:11:47.296Z,0
2023-01-26T17:12:27.942Z,0
2023-01-26T17:13:08.404Z,0
2023-01-26T17:13:48.950Z,0
2023-01-26T17:14:29.482Z,0
2023-01-26T17:15:50.511Z,0
2023-01-26T17:19:11.463Z,0
2023-01-26T17:19:53.714Z,0
2023-01-26T17:20:34.879Z,0
2023-01-26T17:21:15.978Z,0
2023-01-26T17:23:21.447Z,0
2023-01-26T17:26:20.040Z,0
2023-01-26T17:27:01.328Z,0
2023-01-26T17:27:41.835Z,0
2023-01-26T17:28:23.806Z,0
2023-01-26T17:29:04.339Z,0
2023-01-26T17:29:44.808Z,0
2023-01-26T17:36:30.063Z,0
2023-01-26T17:37:11.394Z,0
2023-01-26T17:37:51.965Z,0
2023-01-26T17:38:32.491Z,0
2023-01-26T17:40:46.027Z,0
2023-01-26T17:41:26.703Z,0
2023-01-26T17:42:07.268Z,0
2023-01-26T17:42:48.083Z,0
2023-01-26T17:43:28.678Z,0
2023-01-26T17:44:09.213Z,0
2023-01-26T17:44:51.266Z,0
2023-01-26T17:48:56.024Z,0
2023-01-26T17:49:36.024Z,0
2023-01-26T17:50:16.541Z,0
2023-01-26T17:50:57.354Z,0
2023-01-26T17:54:11.728Z,0
2023-01-26T18:34:33.004Z,0
2023-01-26T18:35:13.616Z,0
2023-01-26T18:35:53.935Z,0
2023-01-26T18:36:34.429Z,0
2023-01-26T18:37:14.970Z,0
2023-01-26T18:37:55.443Z,0
2023-01-26T18:38:35.975Z,0
2023-01-26T18:39:16.456Z,0
2023-01-26T18:39:56.943Z,0
2023-01-26T18:40:37.427Z,0
2023-01-26T18:41:17.925Z,0
2023-01-26T18:48:02.883Z,0
2023-01-26T18:48:43.961Z,0
2023-01-26T18:49:24.468Z,0
2023-01-26T18:50:04.976Z,0
2023-01-26T18:50:45.451Z,0
2023-01-26T18:51:26.466Z,0
2023-01-26T18:52:07.001Z,0
2023-01-26T18:52:47.466Z,0
2023-01-26T18:53:27.941Z,0
2023-01-26T19:00:12.965Z,0
2023-01-26T19:00:53.463Z,0
2023-01-26T19:01:34.515Z,0
2023-01-26T19:02:15.127Z,0
2023-01-26T19:02:55.560Z,0
2023-01-26T19:03:36.086Z,0
2023-01-26T19:04:18.209Z,0
2023-01-26T19:04:57.061Z,0
2023-01-26T19:05:37.607Z,0
2023-01-26T19:11:43.941Z,0
2023-01-26T19:12:24.450Z,0
2023-01-26T19:13:04.988Z,0
2023-01-26T19:13:45.483Z,0
2023-01-26T19:14:25.974Z,0
2023-01-26T19:17:40.895Z,0
2023-01-26T19:18:21.712Z,0
2023-01-26T19:19:02.754Z,0
2023-01-26T19:19:43.726Z,0
2023-01-26T19:20:24.768Z,0
2023-01-26T19:21:05.937Z,0
2023-01-26T19:21:46.808Z,0
2023-01-26T19:22:27.814Z,0
2023-01-26T19:23:08.801Z,0
2023-01-26T19:23:49.804Z,0
2023-01-26T19:26:35.261Z,0
2023-01-26T19:27:16.210Z,0
2023-01-26T19:27:57.415Z,0
2023-01-26T19:28:38.461Z,0
2023-01-26T19:29:19.489Z,0
2023-01-26T19:32:46.422Z,0
2023-01-26T19:33:27.426Z,0
2023-01-26T19:34:08.706Z,0
2023-01-26T19:34:49.673Z,0
2023-01-26T19:37:35.302Z,0
2023-01-26T19:38:16.385Z,0
2023-01-26T19:38:57.475Z,0
2023-01-26T19:39:38.560Z,0
2023-01-26T19:40:19.536Z,0
2023-01-26T19:43:04.744Z,0
2023-01-26T19:43:45.773Z,0
2023-01-26T19:44:26.927Z,0
2023-01-26T19:45:07.781Z,0
2023-01-26T19:45:50.678Z,0
2023-01-26T19:48:34.766Z,0
2023-01-26T19:49:15.835Z,0
2023-01-26T19:49:56.955Z,0
2023-01-26T19:50:37.982Z,0
2023-01-26T19:51:20.148Z,0
2023-01-26T19:54:45.129Z,0
2023-01-26T19:55:26.141Z,0
2023-01-26T19:58:48.686Z,0
2023-01-26T19:59:30.897Z,0
2023-01-26T20:00:12.279Z,0
2023-01-26T20:00:53.366Z,0
2023-01-26T20:01:35.571Z,0
2023-01-26T20:02:21.613Z,0
2023-01-26T20:05:31.542Z,0
2023-01-26T20:06:12.063Z,0
2023-01-26T20:06:52.597Z,0
2023-01-26T20:07:33.054Z,0
2023-01-26T20:08:13.619Z,0
2023-01-26T20:08:54.102Z,0
2023-01-26T20:09:34.583Z,0
2023-01-26T20:10:15.035Z,0
2023-01-26T20:10:55.518Z,0
2023-01-26T20:11:36.035Z,0
2023-01-26T20:19:01.591Z,0
2023-01-26T20:19:42.094Z,0